createdAt,value
2023-01-13T00:01:53.424Z,97522.78
2023-01-13T00:04:22.623Z,97518.16
2023-01-13T00:06:52.085Z,97524.59
2023-01-13T00:09:22.679Z,97501.09
2023-01-13T00:11:51.091Z,97508.13
2023-01-13T00:14:22.117Z,97518.16
2023-01-13T00:16:51.451Z,97512.13
2023-01-13T00:19:21.686Z,97514.94
2023-01-13T00:21:51.722Z,97519.75
2023-01-13T00:24:21.707Z,97506.31
2023-01-13T00:26:53.222Z,97506.13
2023-01-13T00:29:25.404Z,97509.53
2023-01-13T00:31:56.317Z,97502.50
2023-01-13T00:34:26.128Z,97504.94
2023-01-13T00:36:55.025Z,97495.69
2023-01-13T00:39:23.967Z,97493.88
2023-01-13T00:42:10.601Z,97490.25
2023-01-13T00:44:42.032Z,97480.81
2023-01-13T00:47:13.058Z,97485.03
2023-01-13T00:49:43.191Z,97486.44
2023-01-13T00:52:13.244Z,97478.81
2023-01-13T00:54:43.265Z,97483.00
2023-01-13T00:57:13.623Z,97483.00
2023-01-13T00:59:44.843Z,97480.78
2023-01-13T01:02:14.073Z,97473.19
2023-01-13T01:04:43.805Z,97473.19
2023-01-13T01:07:13.369Z,97465.38
2023-01-13T01:09:42.997Z,97467.16
2023-01-13T01:12:12.854Z,97461.13
2023-01-13T01:14:42.007Z,97461.75
2023-01-13T01:17:13.223Z,97460.94
2023-01-13T01:19:43.157Z,97449.50
2023-01-13T01:22:12.035Z,97452.91
2023-01-13T01:24:42.034Z,97450.31
2023-01-13T01:27:11.626Z,97439.84
2023-01-13T01:29:40.520Z,97450.31
2023-01-13T01:32:11.381Z,97440.66
2023-01-13T01:34:40.248Z,97447.69
2023-01-13T01:37:09.622Z,97440.88
2023-01-13T01:39:39.748Z,97443.50
2023-01-13T01:42:32.457Z,97441.47
2023-01-13T01:45:13.042Z,97455.72
2023-01-13T01:47:45.540Z,97442.69
2023-01-13T01:50:15.940Z,97439.06
2023-01-13T01:52:52.331Z,97444.47
2023-01-13T01:55:25.346Z,97441.88
2023-01-13T01:57:59.599Z,97443.84
2023-01-13T02:00:31.290Z,97443.69
2023-01-13T02:03:03.224Z,97435.44
2023-01-13T02:05:32.439Z,97436.84
2023-01-13T02:08:03.134Z,97435.03
2023-01-13T02:10:33.712Z,97434.03
2023-01-13T02:13:05.290Z,97430.63
2023-01-13T02:15:45.885Z,97424.00
2023-01-13T02:18:38.693Z,97424.00
2023-01-13T02:21:53.441Z,97415.16
2023-01-13T02:24:57.342Z,97419.38
2023-01-13T02:28:03.533Z,97410.56
2023-01-13T02:31:06.209Z,97410.34
2023-01-13T02:34:03.220Z,97413.97
2023-01-13T02:36:49.315Z,97407.94
2023-01-13T02:39:27.389Z,97400.28
2023-01-13T02:42:24.004Z,97404.72
2023-01-13T02:45:00.651Z,97398.47
2023-01-13T02:47:35.907Z,97394.66
2023-01-13T02:50:11.931Z,97394.06
2023-01-13T02:52:48.061Z,97395.28
2023-01-13T02:55:23.254Z,97394.91
2023-01-13T02:57:57.267Z,97393.28
2023-01-13T03:00:28.207Z,97392.06
2023-01-13T03:02:59.043Z,97390.06
2023-01-13T03:05:30.726Z,97389.44
2023-01-13T03:08:28.736Z,97386.44
2023-01-13T03:11:08.243Z,97383.22
2023-01-13T03:14:03.047Z,97380.84
2023-01-13T03:17:12.958Z,97376.41
2023-01-13T03:19:58.424Z,97374.59
2023-01-13T03:22:36.169Z,97364.78
2023-01-13T03:25:14.342Z,97363.00
2023-01-13T03:27:52.703Z,97366.38
2023-01-13T03:30:32.668Z,97362.19
2023-01-13T03:33:08.288Z,97364.41
2023-01-13T03:35:45.323Z,97358.38
2023-01-13T03:38:21.294Z,97369.81
2023-01-13T03:40:58.236Z,97357.56
2023-01-13T03:43:49.054Z,97348.72
2023-01-13T03:46:26.798Z,97356.34
2023-01-13T03:49:01.512Z,97337.91
2023-01-13T03:51:37.190Z,97344.72
2023-01-13T03:54:13.410Z,97338.69
2023-01-13T03:56:50.481Z,97338.69
2023-01-13T03:59:34.781Z,97341.09
2023-01-13T04:02:11.436Z,97338.47
2023-01-13T04:04:46.549Z,97345.91
2023-01-13T04:07:32.424Z,97351.53
2023-01-13T04:10:05.529Z,97356.16
2023-01-13T04:12:58.509Z,97347.13
2023-01-13T04:15:31.726Z,97353.97
2023-01-13T04:18:12.578Z,97357.97
2023-01-13T04:20:42.515Z,97356.38
2023-01-13T04:23:13.986Z,97346.31
2023-01-13T04:25:44.361Z,97356.75
2023-01-13T04:28:15.216Z,97348.75
2023-01-13T04:30:46.730Z,97350.13
2023-01-13T04:33:17.993Z,97365.63
2023-01-13T04:35:49.675Z,97362.38
2023-01-13T04:38:22.945Z,97370.22
2023-01-13T04:40:52.975Z,97404.97
2023-01-13T04:43:22.559Z,97431.06
2023-01-13T04:45:53.255Z,97435.66
2023-01-13T04:48:22.399Z,97431.38
2023-01-13T04:50:51.786Z,97436.09
2023-01-13T04:53:22.565Z,97412.44
2023-01-13T04:55:52.376Z,97430.50
2023-01-13T04:58:21.843Z,97421.25
2023-01-13T05:00:52.612Z,97418.44
2023-01-13T05:03:21.408Z,97416.81
2023-01-13T05:05:54.021Z,97411.94
2023-01-13T05:08:25.307Z,97418.53
2023-01-13T05:10:54.796Z,97418.13
2023-01-13T05:13:38.065Z,97427.16
2023-01-13T05:16:27.951Z,97419.53
2023-01-13T05:18:57.602Z,97421.16
2023-01-13T05:21:44.856Z,97428.16
2023-01-13T05:24:33.774Z,97434.97
2023-01-13T05:27:03.399Z,97441.75
2023-01-13T05:29:33.277Z,97440.97
2023-01-13T05:32:05.126Z,97446.38
2023-01-13T05:34:35.842Z,97453.59
2023-01-13T05:37:07.404Z,97461.41
2023-01-13T05:39:52.191Z,97459.59
2023-01-13T05:42:39.106Z,97453.34
2023-01-13T05:45:12.005Z,97454.34
2023-01-13T05:47:41.142Z,97445.28
2023-01-13T05:50:11.817Z,97435.50
2023-01-13T05:52:41.275Z,97446.72
2023-01-13T05:55:13.807Z,97445.53
2023-01-13T05:57:43.067Z,97442.50
2023-01-13T06:00:16.420Z,97457.72
2023-01-13T06:02:46.350Z,97472.75
2023-01-13T06:05:16.144Z,97478.13
2023-01-13T06:07:46.109Z,97470.31
2023-01-13T06:10:16.462Z,97468.91
2023-01-13T06:12:46.548Z,97466.31
2023-01-13T06:15:16.706Z,97453.00
2023-01-13T06:17:46.397Z,97449.44
2023-01-13T06:20:18.232Z,97448.00
2023-01-13T06:22:51.524Z,97463.81
2023-01-13T06:25:31.634Z,97451.78
2023-01-13T06:28:01.799Z,97454.38
2023-01-13T06:30:39.124Z,97448.56
2023-01-13T06:33:15.322Z,97462.38
2023-01-13T06:35:51.315Z,97470.56
2023-01-13T06:38:24.289Z,97473.34
2023-01-13T06:40:57.053Z,97477.75
2023-01-13T06:43:25.588Z,97484.56
2023-01-13T06:45:56.767Z,97483.75
2023-01-13T06:48:33.566Z,97488.16
2023-01-13T06:51:04.588Z,97484.75
2023-01-13T06:53:34.123Z,97489.34
2023-01-13T06:56:05.367Z,97485.72
2023-01-13T06:58:35.809Z,97484.47
2023-01-13T07:01:07.225Z,97488.88
2023-01-13T07:03:37.264Z,97492.81
2023-01-13T07:06:09.147Z,97501.19
2023-01-13T07:08:37.519Z,97498.31
2023-01-13T07:11:09.514Z,97484.88
2023-01-13T07:13:55.677Z,97496.25
2023-01-13T07:16:28.696Z,97496.09
2023-01-13T07:18:59.305Z,97491.88
2023-01-13T07:21:27.875Z,97503.09
2023-01-13T07:23:58.513Z,97507.13
2023-01-13T07:26:30.782Z,97501.91
2023-01-13T07:29:00.972Z,97508.75
2023-01-13T07:31:30.569Z,97523.56
2023-01-13T07:34:00.102Z,97525.09
2023-01-13T07:36:29.617Z,97529.13
2023-01-13T07:38:58.598Z,97529.38
2023-01-13T07:41:46.360Z,97527.69
2023-01-13T07:44:15.339Z,97519.63
2023-01-13T07:46:44.891Z,97533.09
2023-01-13T07:49:14.529Z,97530.28
2023-01-13T07:51:45.254Z,97529.13
2023-01-13T07:54:15.365Z,97522.84
2023-01-13T07:56:46.209Z,97529.50
2023-01-13T07:59:15.150Z,97533.53
2023-01-13T08:01:44.995Z,97527.53
2023-01-13T08:04:14.388Z,97554.59
2023-01-13T08:06:44.877Z,97559.66
2023-01-13T08:09:16.237Z,97551.03
2023-01-13T08:12:07.199Z,97545.69
2023-01-13T08:14:37.793Z,97557.22
2023-01-13T08:17:06.737Z,97566.03
2023-01-13T08:19:37.308Z,97570.91
2023-01-13T08:22:07.397Z,97564.53
2023-01-13T08:24:38.544Z,97579.34
2023-01-13T08:27:09.398Z,97570.91
2023-01-13T08:29:38.403Z,97579.66
2023-01-13T08:32:10.135Z,97576.19
2023-01-13T08:34:40.410Z,97577.97
2023-01-13T08:37:10.673Z,97583.94
2023-01-13T08:39:40.988Z,97599.19
2023-01-13T08:42:11.175Z,97608.00
2023-01-13T08:44:40.652Z,97610.16
2023-01-13T08:47:09.952Z,97610.41
2023-01-13T08:49:40.369Z,97619.94
2023-01-13T08:52:10.981Z,97634.59
2023-01-13T08:54:41.401Z,97631.00
2023-01-13T08:57:12.725Z,97642.03
2023-01-13T08:59:43.363Z,97642.75
2023-01-13T09:02:17.061Z,97645.81
2023-01-13T09:04:48.319Z,97654.06
2023-01-13T09:07:18.644Z,97646.69
2023-01-13T09:09:47.480Z,97642.28
2023-01-13T09:12:36.668Z,97637.88
2023-01-13T09:15:09.159Z,97634.84
2023-01-13T09:17:38.692Z,97636.09
2023-01-13T09:20:10.466Z,97638.53
2023-01-13T09:22:41.243Z,97638.16
2023-01-13T09:25:13.231Z,97645.47
2023-01-13T09:27:43.609Z,97650.31
2023-01-13T09:30:16.370Z,97652.47
2023-01-13T09:32:45.474Z,97648.69
2023-01-13T09:35:14.083Z,97657.31
2023-01-13T09:37:44.715Z,97659.38
2023-01-13T09:40:23.159Z,97670.41
2023-01-13T09:43:18.975Z,97665.13
2023-01-13T09:45:54.526Z,97675.00
2023-01-13T09:48:30.520Z,97671.22
2023-01-13T09:51:14.492Z,97660.00
2023-01-13T09:53:59.714Z,97665.19
2023-01-13T09:56:29.864Z,97661.25
2023-01-13T09:59:01.660Z,97655.22
2023-01-13T10:01:42.941Z,97666.44
2023-01-13T10:04:15.163Z,97668.25
2023-01-13T10:06:49.992Z,97662.44
2023-01-13T10:09:27.757Z,97668.41
2023-01-13T10:12:18.574Z,97677.84
2023-01-13T10:14:58.432Z,97678.84
2023-01-13T10:17:36.909Z,97682.09
2023-01-13T10:20:20.307Z,97672.56
2023-01-13T10:23:04.190Z,97668.59
2023-01-13T10:25:50.561Z,97668.94
2023-01-13T10:28:23.867Z,97667.59
2023-01-13T10:30:54.317Z,97669.03
2023-01-13T10:33:29.634Z,97675.66
2023-01-13T10:36:02.308Z,97676.03
2023-01-13T10:38:39.737Z,97680.34
2023-01-13T10:41:25.292Z,97663.91
2023-01-13T10:44:04.521Z,97673.31
2023-01-13T10:46:51.571Z,97668.38
2023-01-13T10:49:33.315Z,97679.22
2023-01-13T10:52:03.818Z,97688.66
2023-01-13T10:54:33.886Z,97696.22
2023-01-13T10:57:22.016Z,97694.16
2023-01-13T10:59:53.700Z,97692.50
2023-01-13T11:02:30.514Z,97706.31
2023-01-13T11:05:20.079Z,97700.84
2023-01-13T11:07:53.242Z,97705.06
2023-01-13T11:10:27.253Z,97713.78
2023-01-13T11:13:08.574Z,97711.00
2023-01-13T11:15:46.669Z,97706.25
2023-01-13T11:18:32.738Z,97694.03
2023-01-13T11:21:09.693Z,97696.91
2023-01-13T11:23:49.710Z,97701.75
2023-01-13T11:26:29.788Z,97694.91
2023-01-13T11:29:11.705Z,97687.91
2023-01-13T11:31:47.351Z,97691.16
2023-01-13T11:34:31.772Z,97684.31
2023-01-13T11:37:05.926Z,97688.19
2023-01-13T11:39:49.676Z,97685.66
2023-01-13T11:42:26.941Z,97692.13
2023-01-13T11:45:09.631Z,97699.38
2023-01-13T11:47:41.249Z,97704.25
2023-01-13T11:50:34.224Z,97701.63
2023-01-13T11:53:27.452Z,97720.13
2023-01-13T11:56:15.301Z,97701.34
2023-01-13T11:59:17.548Z,97696.66
2023-01-13T12:02:09.826Z,97709.31
2023-01-13T12:04:54.331Z,97689.44
2023-01-13T12:07:44.904Z,97686.22
2023-01-13T12:10:30.051Z,97675.19
2023-01-13T12:13:16.239Z,97679.78
2023-01-13T12:16:24.482Z,97685.06
2023-01-13T12:19:21.930Z,97693.44
2023-01-13T12:22:07.890Z,97694.00
2023-01-13T12:24:51.231Z,97684.75
2023-01-13T12:27:33.160Z,97691.75
2023-01-13T12:30:15.056Z,97692.66
2023-01-13T12:32:44.989Z,97705.84
2023-01-13T12:35:40.497Z,97717.47
2023-01-13T12:38:23.741Z,97713.59
2023-01-13T12:41:11.597Z,97707.25
2023-01-13T12:44:07.102Z,97712.25
2023-01-13T12:46:53.861Z,97703.91
2023-01-13T12:49:30.128Z,97705.78
2023-01-13T12:52:15.653Z,97704.78
2023-01-13T12:55:21.583Z,97710.44
2023-01-13T12:58:17.791Z,97708.47
2023-01-13T13:01:13.555Z,97712.59
2023-01-13T13:03:44.102Z,97719.44
2023-01-13T13:06:20.955Z,97711.63
2023-01-13T13:09:04.573Z,97708.31
2023-01-13T13:11:59.965Z,97712.78
2023-01-13T13:15:05.497Z,97709.91
2023-01-13T13:17:46.235Z,97717.72
2023-01-13T13:20:58.995Z,97713.31
2023-01-13T13:24:06.822Z,97727.81
2023-01-13T13:26:46.279Z,97729.06
2023-01-13T13:30:00.317Z,97743.34
2023-01-13T13:32:55.931Z,97753.69
2023-01-13T13:35:52.315Z,97756.09
2023-01-13T13:39:03.249Z,97768.50
2023-01-13T13:41:54.734Z,97775.69
2023-01-13T13:44:48.757Z,97779.38
2023-01-13T13:47:19.336Z,97785.41
2023-01-13T13:49:54.503Z,97781.69
2023-01-13T13:52:33.869Z,97789.94
2023-01-13T13:55:16.112Z,97802.06
2023-01-13T13:57:49.929Z,97807.16
2023-01-13T14:00:29.787Z,97814.81
2023-01-13T14:03:02.277Z,97819.03
2023-01-13T14:05:34.913Z,97800.63
2023-01-13T14:08:16.212Z,97796.84
2023-01-13T14:10:48.296Z,97788.41
2023-01-13T14:13:24.086Z,97800.44
2023-01-13T14:16:01.185Z,97799.34
2023-01-13T14:18:36.294Z,97798.53
2023-01-13T14:21:23.535Z,97801.50
2023-01-13T14:23:57.651Z,97791.09
2023-01-13T14:26:28.700Z,97795.06
2023-01-13T14:29:01.176Z,97791.44
2023-01-13T14:31:33.000Z,97795.06
2023-01-13T14:34:31.987Z,97799.44
2023-01-13T14:37:00.473Z,97805.47
2023-01-13T14:39:39.404Z,97802.22
2023-01-13T14:42:14.915Z,97808.84
2023-01-13T14:44:47.960Z,97816.66
2023-01-13T14:47:26.873Z,97817.50
2023-01-13T14:50:02.702Z,97828.25
2023-01-13T14:52:35.773Z,97827.91
2023-01-13T14:55:29.605Z,97829.97
2023-01-13T14:58:26.989Z,97846.22
2023-01-13T15:01:31.845Z,97850.25
2023-01-13T15:04:27.170Z,97861.50
2023-01-13T15:06:58.929Z,97871.91
2023-01-13T15:09:34.639Z,97879.41
2023-01-13T15:12:23.362Z,97892.16
2023-01-13T15:14:56.756Z,97901.56
2023-01-13T15:17:28.624Z,97895.28
2023-01-13T15:19:58.143Z,97904.53
2023-01-13T15:22:29.604Z,97907.22
2023-01-13T15:25:00.109Z,97919.69
2023-01-13T15:27:30.355Z,97942.84
2023-01-13T15:29:59.336Z,97937.16
2023-01-13T15:32:30.961Z,97931.63
2023-01-13T15:35:00.161Z,97931.78
2023-01-13T15:37:30.770Z,97937.53
2023-01-13T15:40:01.030Z,97931.16
2023-01-13T15:42:48.488Z,97935.53
2023-01-13T15:45:35.462Z,97936.88
2023-01-13T15:48:07.048Z,97937.06
2023-01-13T15:50:36.627Z,97933.63
2023-01-13T15:53:06.699Z,97939.97
2023-01-13T15:55:39.868Z,97940.16
2023-01-13T15:58:09.071Z,97943.25
2023-01-13T16:00:39.248Z,97944.59
2023-01-13T16:03:14.335Z,97950.13
2023-01-13T16:05:44.155Z,97951.75
2023-01-13T16:08:17.657Z,97961.97
2023-01-13T16:10:48.883Z,97961.34
2023-01-13T16:13:19.150Z,97976.50
2023-01-13T16:15:51.158Z,97978.28
2023-01-13T16:18:24.858Z,97977.66
2023-01-13T16:20:56.032Z,97985.97
2023-01-13T16:23:27.394Z,97992.78
2023-01-13T16:25:57.718Z,97993.94
2023-01-13T16:28:29.497Z,98001.41
2023-01-13T16:30:59.660Z,98011.00
2023-01-13T16:33:30.852Z,98014.09
2023-01-13T16:36:10.471Z,98028.72
2023-01-13T16:38:43.702Z,98012.63
2023-01-13T16:41:14.393Z,98018.81
2023-01-13T16:43:44.555Z,98023.34
2023-01-13T16:46:26.357Z,98032.63
2023-01-13T16:49:02.570Z,98028.41
2023-01-13T16:51:32.168Z,98024.81
2023-01-13T16:54:01.683Z,98023.19
2023-01-13T16:56:34.524Z,98038.19
2023-01-13T16:59:08.729Z,98041.41
2023-01-13T17:01:41.939Z,98036.06
2023-01-13T17:04:19.656Z,98050.88
2023-01-13T17:06:58.258Z,98061.41
2023-01-13T17:09:29.226Z,98068.59
2023-01-13T17:12:00.010Z,98072.34
2023-01-13T17:14:29.815Z,98083.72
2023-01-13T17:16:59.762Z,98090.88
2023-01-13T17:19:30.389Z,98102.06
2023-01-13T17:22:00.593Z,98104.84
2023-01-13T17:24:32.710Z,98104.69
2023-01-13T17:27:03.707Z,98102.25
2023-01-13T17:29:33.010Z,98103.56
2023-01-13T17:32:02.851Z,98091.72
2023-01-13T17:34:34.663Z,98101.28
2023-01-13T17:37:03.508Z,98109.09
2023-01-13T17:39:33.785Z,98107.47
2023-01-13T17:42:03.633Z,98104.69
2023-01-13T17:44:34.162Z,98109.25
2023-01-13T17:47:04.092Z,98113.81
2023-01-13T17:49:34.238Z,98124.38
2023-01-13T17:52:04.045Z,98129.56
2023-01-13T17:54:35.505Z,98138.34
2023-01-13T17:57:07.677Z,98149.22
2023-01-13T17:59:37.676Z,98154.59
2023-01-13T18:02:07.650Z,98149.75
2023-01-13T18:04:38.658Z,98144.53
2023-01-13T18:07:08.462Z,98150.56
2023-01-13T18:09:38.398Z,98142.91
2023-01-13T18:12:08.016Z,98146.81
2023-01-13T18:14:37.345Z,98139.97
2023-01-13T18:17:07.073Z,98152.00
2023-01-13T18:19:55.486Z,98148.44
2023-01-13T18:22:41.726Z,98152.19
2023-01-13T18:25:31.269Z,98157.53
2023-01-13T18:28:01.848Z,98145.97
2023-01-13T18:30:32.224Z,98166.16
2023-01-13T18:33:02.076Z,98161.09
2023-01-13T18:35:33.236Z,98164.69
2023-01-13T18:38:03.613Z,98155.41
2023-01-13T18:40:33.466Z,98161.09
2023-01-13T18:43:02.785Z,98172.50
2023-01-13T18:45:33.453Z,98175.09
2023-01-13T18:48:06.950Z,98171.50
2023-01-13T18:50:36.947Z,98173.47
2023-01-13T18:53:06.388Z,98176.06
2023-01-13T18:55:36.066Z,98169.22
2023-01-13T18:58:05.190Z,98178.50
2023-01-13T19:00:38.246Z,98182.56
2023-01-13T19:03:09.584Z,98192.63
2023-01-13T19:05:39.505Z,98180.31
2023-01-13T19:08:10.032Z,98197.19
2023-01-13T19:10:41.662Z,98194.56
2023-01-13T19:13:11.112Z,98194.56
2023-01-13T19:15:40.751Z,98201.41
2023-01-13T19:18:10.696Z,98201.25
2023-01-13T19:20:41.703Z,98203.88
2023-01-13T19:23:13.644Z,98204.50
2023-01-13T19:25:43.621Z,98205.31
2023-01-13T19:28:16.982Z,98216.22
2023-01-13T19:30:46.112Z,98218.66
2023-01-13T19:33:15.005Z,98220.78
2023-01-13T19:35:45.901Z,98225.81
2023-01-13T19:38:15.515Z,98223.88
2023-01-13T19:40:53.174Z,98237.84
2023-01-13T19:43:40.029Z,98241.41
2023-01-13T19:46:10.048Z,98247.56
2023-01-13T19:48:39.247Z,98243.03
2023-01-13T19:51:14.914Z,98248.56
2023-01-13T19:53:47.656Z,98258.66
2023-01-13T19:56:17.276Z,98257.81
2023-01-13T19:58:50.763Z,98271.47
2023-01-13T20:01:21.543Z,98265.47
2023-01-13T20:03:50.784Z,98266.28
2023-01-13T20:06:21.702Z,98265.31
2023-01-13T20:08:52.622Z,98263.84
2023-01-13T20:11:28.362Z,98273.13
2023-01-13T20:14:00.113Z,98269.69
2023-01-13T20:16:30.096Z,98271.31
2023-01-13T20:18:59.053Z,98276.34
2023-01-13T20:21:31.859Z,98269.69
2023-01-13T20:24:02.045Z,98265.94
2023-01-13T20:26:31.990Z,98271.97
2023-01-13T20:29:02.329Z,98281.09
2023-01-13T20:31:32.172Z,98282.06
2023-01-13T20:34:01.985Z,98278.00
2023-01-13T20:36:37.476Z,98283.19
2023-01-13T20:39:08.732Z,98286.91
2023-01-13T20:41:56.327Z,98288.22
2023-01-13T20:44:26.947Z,98287.72
2023-01-13T20:46:58.553Z,98291.16
2023-01-13T20:49:31.013Z,98289.38
2023-01-13T20:52:04.200Z,98289.50
2023-01-13T20:54:33.661Z,98297.00
2023-01-13T20:57:04.129Z,98295.06
2023-01-13T20:59:34.713Z,98291.00
2023-01-13T21:02:05.889Z,98291.78
2023-01-13T21:04:36.716Z,98288.22
2023-01-13T21:07:06.912Z,98289.84
2023-01-13T21:09:36.823Z,98295.06
2023-01-13T21:12:24.499Z,98300.25
2023-01-13T21:15:27.859Z,98307.41
2023-01-13T21:18:15.319Z,98322.34
2023-01-13T21:20:44.738Z,98339.25
2023-01-13T21:23:15.069Z,98346.09
2023-01-13T21:25:45.679Z,98344.44
2023-01-13T21:28:17.678Z,98342.53
2023-01-13T21:30:47.949Z,98348.69
2023-01-13T21:33:17.551Z,98332.13
2023-01-13T21:35:48.256Z,98346.59
2023-01-13T21:38:19.513Z,98354.22
2023-01-13T21:40:56.666Z,98345.63
2023-01-13T21:43:49.303Z,98354.06
2023-01-13T21:46:37.118Z,98353.56
2023-01-13T21:49:06.950Z,98342.19
2023-01-13T21:51:37.259Z,98344.81
2023-01-13T21:54:07.739Z,98350.31
2023-01-13T21:56:36.989Z,98357.94
2023-01-13T21:59:07.656Z,98356.81
2023-01-13T22:01:36.864Z,98360.06
2023-01-13T22:04:25.322Z,98361.50
2023-01-13T22:06:54.378Z,98370.13
2023-01-13T22:09:25.687Z,98363.97
2023-01-13T22:11:55.032Z,98364.94
2023-01-13T22:14:26.236Z,98369.50
2023-01-13T22:17:01.295Z,98382.19
2023-01-13T22:19:31.964Z,98377.28
2023-01-13T22:22:02.263Z,98382.50
2023-01-13T22:24:34.080Z,98388.50
2023-01-13T22:27:03.113Z,98389.34
2023-01-13T22:29:32.719Z,98404.44
2023-01-13T22:32:01.799Z,98391.25
2023-01-13T22:34:30.898Z,98400.84
2023-01-13T22:37:01.100Z,98391.44
2023-01-13T22:39:32.760Z,98398.75
2023-01-13T22:42:02.455Z,98390.25
2023-01-13T22:44:31.801Z,98379.53
2023-01-13T22:47:03.015Z,98381.03
2023-01-13T22:49:31.735Z,98382.81
2023-01-13T22:52:01.411Z,98386.22
2023-01-13T22:54:31.898Z,98386.38
2023-01-13T22:57:02.897Z,98398.75
2023-01-13T22:59:32.759Z,98397.91
2023-01-13T23:02:01.353Z,98393.53
2023-01-13T23:04:30.886Z,98408.00
2023-01-13T23:07:00.057Z,98406.38
2023-01-13T23:09:30.638Z,98404.44
2023-01-13T23:12:01.641Z,98407.53
2023-01-13T23:14:30.636Z,98412.06
2023-01-13T23:17:00.196Z,98406.88
2023-01-13T23:19:30.547Z,98407.19
2023-01-13T23:22:01.120Z,98410.75
2023-01-13T23:24:31.207Z,98407.31
2023-01-13T23:27:01.641Z,98407.69
2023-01-13T23:29:30.614Z,98405.09
2023-01-13T23:32:00.579Z,98410.13
2023-01-13T23:34:30.443Z,98399.75
2023-01-13T23:36:59.984Z,98402.47
2023-01-13T23:39:30.943Z,98412.75
2023-01-13T23:42:01.499Z,98409.16
2023-01-13T23:44:31.352Z,98403.13
2023-01-13T23:47:01.563Z,98404.44
2023-01-13T23:49:31.525Z,98398.56
2023-01-13T23:52:01.677Z,98419.22
2023-01-13T23:54:31.723Z,98410.44
2023-01-13T23:57:04.528Z,98409.31
2023-01-13T23:59:35.008Z,98398.75
